Tiempo atmosférico en la estación meteorológica de Padrón, A Coruña (100 m.)



Fecha
DESCASC
Temp. máxima en grados centígrados (hora)
DESCASC
Temp. mínima en grados centígrados (hora)
DESCASC
Temp. media en grados centígrados
DESCASC
Racha de viento máxima en m/sg (hora)
DESCASC
Velocidad máxima media en intervalos de 10 minutos(hora)
DESCASC
Precipitaciones diarias en mm
DESCASC
Precipitaciones de 00:00 a 06:00 en mm
DESCASC
Precipitaciones de 06:00 a 12:00 en mm
DESCASC
Precipitaciones de 12:00 a 18:00 en mm
DESCASC
Precipitaciones de 18:00 a 24:00 en mm
DESCASC
18-04-2019 20 (17:00) 9.4 (07:50) 14.7 7.22 (20:00) 3.89 (20:00) 7.2 2.8 0.1 3.8 0.5
17-04-2019 15.7 (13:20) 7.7 (06:20) 11.7 8.61 (13:00) 3.33 (00:30) 9.5 0 0 2.7 6.8
16-04-2019 19.1 (16:30) 6.7 (00:00) 12.9 8.06 (13:00) 3.61 (07:40) 0.4 0.4 0 0 0
15-04-2019 16.8 (16:40) 9.5 (00:00) 13.1 12.5 (10:30) 5 (09:50) 4.4 1.5 2.5 0.4 0
14-04-2019 17.4 (13:20) 12.8 (00:00) 15.1 8.33 (18:00) 2.78 (19:00) 1 0.7 0.2 0 0.1
13-04-2019 17.6 (14:20) 7.4 (00:00) 12.5 7.22 (17:30) 3.89 (08:40) 0.3 0 0 0 0.3
12-04-2019 19.4 (15:10) 2.5 (00:00) 10.9 8.33 (09:20) 5.83 (09:20) 0 0 0 0 0
11-04-2019 19.2 (16:50) 4.9 (00:00) 12.1 7.22 (10:10) 5.56 (11:20) 0 0 0 0 0
10-04-2019 17.6 (17:40) 7.2 (00:00) 12.4 5.83 (16:40) 2.78 (19:30) 5.6 5.5 0 0.1 0
09-04-2019 13.4 (14:00) 6.1 (00:00) 9.7 12.78 (14:10) 4.44 (14:10) 15.2 7.5 0.2 3.8 3.7
08-04-2019 14.9 (14:30) 6.7 (00:00) 10.8 14.72 (14:40) 6.39 (18:40) 11.2 1.4 0.8 0.4 8.6
07-04-2019 11.2 (21:00) 2.7 (00:00) 6.9 7.22 (22:10) 4.44 (07:40) 31.4 0.1 0 14.3 17
06-04-2019 13.4 (15:50) 5.4 (00:00) 9.4 11.39 (05:40) 4.17 (17:40) 14.8 7.8 3.5 2.3 1.2
05-04-2019 11.4 (14:20) 3.7 (00:00) 7.5 8.61 (12:00) 3.33 (12:00) 16.7 2.1 1.2 9.9 3.5
04-04-2019 9.3 (12:50) 1.2 (00:00) 5.3 13.61 (17:20) 5.56 (17:20) 22.2 0.3 0.1 7.9 13.9
03-04-2019 13.9 (14:00) 3.5 (00:00) 8.7 12.5 (18:10) 5 (14:30) 2.8 0.2 1.1 0.5 1
02-04-2019 18.6 (16:20) 6.5 (00:00) 12.6 8.61 (18:30) 4.17 (11:50) 0 0 0 0 0
01-04-2019 22.7 (15:10) 5 (00:00) 13.9 8.06 (19:10) 5.28 (09:20) 0 0 0 0 0
31-03-2019 21.5 (17:00) 3.7 (00:00) 12.6 17.78 (16:20) 10.56 (16:20) 0.2 0 0 0.2 0
30-03-2019 22.8 (15:00) 2 (00:00) 12.4 6.67 (09:50) 5 (07:20) 0 0 0 0 0
29-03-2019 23.6 (14:40) 3.8 (00:00) 13.7 10.83 (16:20) 5.28 (08:40) 0 0 0 0 0
28-03-2019 24.5 (15:10) 3.8 (00:00) 14.1 7.78 (00:30) 4.17 (14:00) 0 0 0 0 0
27-03-2019 24.6 (15:30) 3 (00:00) 13.8 13.06 (03:30) 10 (03:30) 0 0 0 0 0
26-03-2019 23 (16:10) 6.6 (00:00) 14.8 14.44 (21:20) 11.11 (21:20) 0 0 0 0 0
25-03-2019 22 (15:30) 7.8 (00:00) 14.9 12.78 (12:40) 9.17 (13:00) 0 0 0 0 0
24-03-2019 25.6 (15:30) 4.2 (00:00) 14.9 11.11 (19:50) 6.67 (19:50) 0 0 0 0 0
23-03-2019 24.3 (16:00) 2.4 (00:00) 13.3 7.78 (08:40) 5.83 (08:40) 0 0 0 0 0
22-03-2019 21.5 (15:50) 2.6 (00:00) 12 6.39 (08:20) 5 (06:50) 0 0 0 0 0
21-03-2019 21.1 (16:10) 4.1 (00:00) 12.6 7.22 (01:30) 4.72 (08:30) 0 0 0 0 0

Gráficas

Temp. máximas Temp. mínimas Temp. medias Precipitaciones Rachas de viento máximas Velocidades máximas media en intervalos de 10 minutos

Datos horarios

Fecha y hora oficial Temperatura (ºC) Velocidad del viento (km/h) Dirección del viento Racha (km/h) Dirección de racha Precipitación (mm) Presión (hPa) Tendencia (hPa) Humedad (%)
2019-04-19 23:00:00 14.7 8 Este 20 Este 0 -- -- 66
2019-04-19 22:00:00 15.4 8 Este 20 Este 0 -- -- 66
2019-04-19 21:00:00 16.7 7 Este 22 Este 0 -- -- 63
2019-04-19 20:00:00 17.9 16 Este 36 Este 0 -- -- 56
2019-04-19 19:00:00 19 16 Este 37 Este 0 -- -- 53
2019-04-19 18:00:00 20.8 12 Nordeste 35 Nordeste 0 -- -- 51
2019-04-19 17:00:00 21.1 16 Nordeste 38 Este 0 -- -- 50
2019-04-19 16:00:00 20.8 14 Este 31 Este 0 -- -- 51
2019-04-19 15:00:00 19.4 13 Este 28 Este 0 -- -- 55
2019-04-19 14:00:00 19 12 Este 33 Este 0 -- -- 58
2019-04-19 13:00:00 17.3 15 Este 30 Este 0 -- -- 60
2019-04-19 12:00:00 15.6 15 Este 44 Este 0 -- -- 70
2019-04-19 11:00:00 14.3 17 Este 37 Este 0 -- -- 79
2019-04-19 10:00:00 13 13 Este 30 Nordeste 0 -- -- 84
2019-04-19 09:00:00 12.3 10 Este 28 Nordeste 0 -- -- 86
2019-04-19 08:00:00 12 10 Nordeste 24 Nordeste 0 -- -- 87
2019-04-19 07:00:00 11.8 7 Este 24 Nordeste 0 -- -- 86
2019-04-19 06:00:00 11.2 6 Este 20 Sudeste 0 -- -- 87
2019-04-19 05:00:00 10.4 4 Este 17 Sudeste 0 -- -- 87
2019-04-19 04:00:00 10.3 0 Calma 11 Este 0 -- -- 86
2019-04-19 03:00:00 10.7 3 Este 14 Este 0 -- -- 83
2019-04-19 02:00:00 11.3 6 Este 18 Este 0 -- -- 80
2019-04-19 01:00:00 11.2 0 Calma 7 Sur 0 -- -- 83
2019-04-19 00:00:00 12.3 0 Calma 17 Nordeste 0 -- -- 80
2019-04-18 23:00:00 12.3 2 Este 26 Nordeste 0 -- -- 80
2019-04-18 22:00:00 12.8 11 Nordeste 23 Norte 0 -- -- 77
2019-04-18 21:00:00 13.3 9 Nordeste 23 Nordeste 0 -- -- 75
2019-04-18 20:00:00 14.1 14 Nordeste 26 Nordeste 0 -- -- 77
2019-04-18 19:00:00 15.4 0 Calma 13 Nordeste 0.5 -- -- 83
2019-04-18 18:00:00 14.6 0 Calma 15 Oeste 3.8 -- -- 72
2019-04-18 17:00:00 18.7 6 Oeste 17 Oeste 0 -- -- 54
2019-04-18 16:00:00 17.2 2 Norte 11 Norte 0 -- -- 55
2019-04-18 15:00:00 17.3 3 Sudoeste 12 Este 0 -- -- 55
2019-04-18 14:00:00 16 5 Sudeste 14 Sudeste 0 -- -- 55
2019-04-18 13:00:00 16.3 0 Calma 8 Sur 0 -- -- 63
2019-04-18 12:00:00 14.9 0 Calma 6 Oeste 0 -- -- 70
2019-04-18 11:00:00 14 0 Calma 13 Este 0 -- -- 80
2019-04-18 10:00:00 12.2 0 Calma 8 Este 0 -- -- 94
2019-04-18 09:00:00 10.9 3 Este 12 Este 0 -- -- 94
2019-04-18 08:00:00 9.5 4 Nordeste 12 Este 0.1 -- -- 94
2019-04-18 07:00:00 9.5 8 Nordeste 14 Sudoeste 0 -- -- 94
2019-04-18 06:00:00 10 5 Este 12 Este 0 -- -- 94
2019-04-18 05:00:00 10.4 3 Nordeste 10 Nordeste 1.2 -- -- 94
2019-04-18 04:00:00 10.9 2 Sudeste 12 Nordeste 0.3 -- -- 94
2019-04-18 03:00:00 10.8 7 Nordeste 12 Este 0.1 -- -- 94
2019-04-18 02:00:00 11 8 Este 13 Este 0.1 -- -- 94
2019-04-18 01:00:00 11.2 9 Nordeste 14 Nordeste 1.1 -- -- 94
2019-04-18 00:00:00 11.2 9 Nordeste 14 Nordeste 1.1 -- -- 94
2019-04-17 23:00:00 11.5 7 Nordeste 12 Este 1.6 -- -- 93
2019-04-17 22:00:00 11.7 5 Este 14 Este 1.8 -- -- 93
2019-04-17 21:00:00 11.9 7 Nordeste 14 Nordeste 0 -- -- 93
2019-04-17 20:00:00 12.1 0 Calma 12 Oeste 0.6 -- -- 93
2019-04-17 19:00:00 12.2 3 Oeste 15 Oeste 1.7 -- -- 93
2019-04-17 18:00:00 12.3 4 Oeste 14 Oeste 1.7 -- -- 93
2019-04-17 17:00:00 12.7 6 Oeste 18 Oeste 0.5 -- -- 91
2019-04-17 16:00:00 12.9 6 Oeste 19 Oeste 0.4 -- -- 90
2019-04-17 15:00:00 14.7 7 Oeste 18 Oeste 0.1 -- -- 73
2019-04-17 14:00:00 14.6 5 Oeste 27 Sudoeste 0 -- -- 71
2019-04-17 13:00:00 15.1 11 Sudoeste 31 Sudoeste 0 -- -- 57
2019-04-17 12:00:00 14.4 2 Este 10 Sudeste 0 -- -- 63
2019-04-17 11:00:00 11.7 4 Oeste 14 Oeste 0 -- -- 78
2019-04-17 10:00:00 9.8 3 Oeste 9 Nordeste 0 -- -- 89
2019-04-17 09:00:00 8.8 0 Calma 12 Nordeste 0 -- -- 91
2019-04-17 08:00:00 8.5 0 Calma 6 Sudoeste 0 -- -- 91
2019-04-17 07:00:00 8 0 Calma 11 Nordeste 0 -- -- 91
2019-04-17 06:00:00 7.9 6 Nordeste 17 Este 0 -- -- 91
2019-04-17 05:00:00 8.2 4 Nordeste 6 Nordeste 0 -- -- 89
2019-04-17 04:00:00 8.3 0 Calma 12 Este 0 -- -- 88
2019-04-17 03:00:00 8.6 7 Nordeste 15 Este 0 -- -- 87
2019-04-17 02:00:00 8.9 8 Nordeste 14 Nordeste 0 -- -- 85
2019-04-17 01:00:00 9.5 10 Este 15 Este 0 -- -- 82
2019-04-17 00:00:00 9.9 9 Nordeste 13 Nordeste 0 -- -- 76
2019-04-16 23:00:00 11.7 0 Calma 5 Sur 0 -- -- 68
2019-04-16 22:00:00 12.1 0 Calma 4 Oeste 0 -- -- 68
2019-04-16 21:00:00 12.9 0 Calma 10 Oeste 0 -- -- 64
2019-04-16 20:00:00 14.5 0 Calma 20 Oeste 0 -- -- 58
2019-04-16 19:00:00 16.1 7 Oeste 19 Noroeste 0 -- -- 53
2019-04-16 18:00:00 16.7 6 Oeste 18 Oeste 0 -- -- 52
2019-04-16 17:00:00 17.2 4 Noroeste 21 Oeste 0 -- -- 51
2019-04-16 16:00:00 18.1 7 Oeste 26 Oeste 0 -- -- 50
2019-04-16 15:00:00 17.1 7 Oeste 22 Sudoeste 0 -- -- 50
2019-04-16 14:00:00 17.1 8 Oeste 25 Oeste 0 -- -- 49
2019-04-16 13:00:00 15.1 10 Oeste 29 Oeste 0 -- -- 56
2019-04-16 12:00:00 13.7 6 Oeste 15 Sudoeste 0 -- -- 66
2019-04-16 11:00:00 12 3 Nordeste 14 Este 0 -- -- 80
2019-04-16 10:00:00 10.1 10 Nordeste 17 Nordeste 0 -- -- 90
2019-04-16 09:00:00 7.6 13 Nordeste 18 Nordeste 0 -- -- 94
2019-04-16 08:00:00 7 11 Nordeste 18 Nordeste 0 -- -- 94
2019-04-16 07:00:00 7.4 9 Este 16 Nordeste 0 -- -- 94
2019-04-16 06:00:00 7.4 6 Este 13 Este 0 -- -- 92
2019-04-16 05:00:00 9 0 Calma 11 Sudoeste 0 -- -- 90
2019-04-16 04:00:00 9.3 0 Calma 12 Sudoeste 0 -- -- 91
2019-04-16 03:00:00 8.9 6 Este 14 Nordeste 0.1 -- -- 92
2019-04-16 02:00:00 9.7 0 Calma 9 Oeste 0.3 -- -- 91
2019-04-16 01:00:00 10.1 2 Sur 10 Sur 0 -- -- 85
2019-04-16 00:00:00 9.8 3 Sudoeste 13 Sudoeste 0 -- -- 86
2019-04-15 23:00:00 9.7 2 Sudoeste 11 Sudeste 0 -- -- 85
2019-04-15 22:00:00 10 2 Sudoeste 14 Oeste 0 -- -- 85
2019-04-15 21:00:00 11.1 8 Oeste 26 Oeste 0 -- -- 78
2019-04-15 20:00:00 12.1 9 Oeste 27 Oeste 0 -- -- 75
2019-04-15 19:00:00 13 10 Oeste 28 Oeste 0 -- -- 69
2019-04-15 18:00:00 14.8 9 Oeste 32 Oeste 0 -- -- 63
2019-04-15 17:00:00 15.7 8 Oeste 31 Oeste 0 -- -- 60
2019-04-15 16:00:00 15.1 13 Oeste 30 Oeste 0 -- -- 73
2019-04-15 15:00:00 13.8 10 Oeste 37 Oeste 0 -- -- 80
2019-04-15 14:00:00 15 15 Oeste 35 Oeste 0 -- -- 86
2019-04-15 13:00:00 13.3 8 Oeste 35 Oeste 0.4 -- -- 94
2019-04-15 12:00:00 11.8 10 Oeste 35 Oeste 1.5 -- -- 94
2019-04-15 11:00:00 11.8 16 Oeste 45 Oeste 0.3 -- -- 95
2019-04-15 10:00:00 12.3 17 Oeste 45 Sudoeste 0.1 -- -- 94
2019-04-15 09:00:00 13.4 12 Oeste 35 Sudoeste 0.1 -- -- 94
2019-04-15 08:00:00 13.3 10 Oeste 30 Sudoeste 0.1 -- -- 94
2019-04-15 07:00:00 13.4 10 Oeste 24 Sudoeste 0.4 -- -- 94
2019-04-15 06:00:00 13.7 11 Oeste 28 Oeste 0.1 -- -- 94
2019-04-15 05:00:00 13.8 3 Oeste 20 Oeste 1.1 -- -- 94
2019-04-15 04:00:00 14.4 3 Noroeste 10 Oeste 0.3 -- -- 94
2019-04-15 03:00:00 14.4 2 Oeste 12 Oeste 0 -- -- 94
2019-04-15 02:00:00 15 3 Oeste 12 Oeste 0 -- -- 94
2019-04-15 01:00:00 15.1 4 Oeste 15 Sudoeste 0 -- -- 94
2019-04-15 00:00:00 15.2 5 Sudoeste 15 Sudoeste 0 -- -- 93
2019-04-14 23:00:00 15 3 Noroeste 7 Oeste 0 -- -- 94
2019-04-14 22:00:00 15.1 0 Calma 7 Noroeste 0 -- -- 94
2019-04-14 21:00:00 15.1 3 Noroeste 12 Oeste 0 -- -- 94
2019-04-14 20:00:00 15.6 5 Oeste 23 Oeste 0.1 -- -- 93
2019-04-14 19:00:00 16.1 10 Oeste 27 Sudoeste 0 -- -- 90
2019-04-14 18:00:00 16.2 8 Oeste 30 Sudoeste 0 -- -- 90
2019-04-14 17:00:00 16.7 6 Oeste 21 Oeste 0 -- -- 90
2019-04-14 16:00:00 16.6 6 Oeste 17 Oeste 0 -- -- 90
2019-04-14 15:00:00 16.7 5 Oeste 17 Oeste 0 -- -- 89
2019-04-14 14:00:00 16 7 Oeste 21 Oeste 0 -- -- 91
2019-04-14 13:00:00 17 4 Oeste 15 Oeste 0 -- -- 94
2019-04-14 12:00:00 14.8 0 Calma 6 Oeste 0 -- -- 94
2019-04-14 11:00:00 14.3 0 Calma 6 Noroeste 0 -- -- 94
2019-04-14 10:00:00 13.7 0 Calma 4 Oeste 0.1 -- -- 94
2019-04-14 09:00:00 13.6 0 Calma 4 Oeste 0 -- -- 94
2019-04-14 08:00:00 13.3 0 Calma 6 Sudoeste 0 -- -- 94
2019-04-14 07:00:00 13.2 0 Calma 7 Oeste 0.1 -- -- 94
2019-04-14 06:00:00 13.1 4 Oeste 13 Oeste 0.4 -- -- 94
2019-04-14 05:00:00 13.1 3 Oeste 13 Oeste 0.1 -- -- 94
2019-04-14 04:00:00 13.1 4 Oeste 15 Oeste 0.2 -- -- 94
2019-04-14 03:00:00 13 3 Noroeste 14 Oeste 0 -- -- 94
2019-04-14 02:00:00 12.9 8 Oeste 17 Oeste 0 -- -- 94
2019-04-14 01:00:00 13.1 3 Noroeste 10 Oeste 0 -- -- 94
2019-04-14 00:00:00 13 4 Oeste 21 Oeste 0 -- -- 94
2019-04-13 23:00:00 12.9 6 Oeste 15 Oeste 0 -- -- 94
2019-04-13 22:00:00 12.9 5 Oeste 14 Oeste 0.3 -- -- 94
2019-04-13 21:00:00 13 3 Oeste 13 Oeste 0 -- -- 93
2019-04-13 20:00:00 13.3 4 Oeste 14 Oeste 0 -- -- 92
2019-04-13 19:00:00 13.7 6 Oeste 20 Oeste 0 -- -- 86
2019-04-13 18:00:00 13.8 7 Oeste 26 Oeste 0 -- -- 83
2019-04-13 17:00:00 14.9 6 Oeste 21 Oeste 0 -- -- 77
2019-04-13 16:00:00 15.6 7 Oeste 21 Oeste 0 -- -- 64
2019-04-13 15:00:00 16 6 Oeste 18 Oeste 0 -- -- 58
2019-04-13 14:00:00 16.5 5 Oeste 16 Oeste 0 -- -- 56
2019-04-13 13:00:00 14.8 4 Oeste 13 Oeste 0 -- -- 60
2019-04-13 12:00:00 14.3 4 Oeste 10 Oeste 0 -- -- 68
2019-04-13 11:00:00 11.7 4 Nordeste 11 Este 0 -- -- 80
2019-04-13 10:00:00 9.2 9 Nordeste 14 Nordeste 0 -- -- 91
2019-04-13 09:00:00 8.1 12 Nordeste 18 Nordeste 0 -- -- 91
2019-04-13 08:00:00 7.8 13 Nordeste 17 Nordeste 0 -- -- 91
2019-04-13 07:00:00 7.9 12 Nordeste 16 Nordeste 0 -- -- 92
2019-04-13 06:00:00 7.4 9 Este 15 Nordeste 0 -- -- 91
2019-04-13 05:00:00 7.7 11 Nordeste 15 Nordeste 0 -- -- 91
2019-04-13 04:00:00 8.1 8 Nordeste 13 Nordeste 0 -- -- 89
2019-04-13 03:00:00 8.4 8 Nordeste 13 Nordeste 0 -- -- 88
2019-04-13 02:00:00 8.5 6 Nordeste 9 Nordeste 0 -- -- 88
2019-04-13 01:00:00 9.1 3 Este 7 Nordeste 0 -- -- 84
2019-04-13 00:00:00 10.7 0 Calma 3 Oeste 0 -- -- 80
2019-04-12 23:00:00 10.9 0 Calma 4 Oeste 0 -- -- 80
2019-04-12 22:00:00 10.9 0 Calma 5 Oeste 0 -- -- 75
2019-04-12 21:00:00 12.8 2 Oeste 14 Oeste 0 -- -- 61
2019-04-12 20:00:00 15.4 5 Oeste 17 Oeste 0 -- -- 47
2019-04-12 19:00:00 16.8 5 Oeste 17 Oeste 0 -- -- 41
2019-04-12 18:00:00 18.4 6 Oeste 24 Oeste 0 -- -- 41
2019-04-12 17:00:00 18.6 6 Oeste 26 Oeste 0 -- -- 41
2019-04-12 16:00:00 18.1 9 Oeste 23 Sudoeste 0 -- -- 41
2019-04-12 15:00:00 18.6 7 Oeste 22 Oeste 0 -- -- 42
2019-04-12 14:00:00 17.3 6 Oeste 15 Oeste 0 -- -- 47
2019-04-12 13:00:00 15 2 Oeste 14 Este 0 -- -- 58
2019-04-12 12:00:00 11.5 9 Este 25 Este 0 -- -- 71
2019-04-12 11:00:00 8.5 17 Este 27 Este 0 -- -- 88
2019-04-12 10:00:00 5.9 18 Este 30 Este 0 -- -- 97
2019-04-12 09:00:00 4.8 17 Este 26 Este 0 -- -- 97
2019-04-12 08:00:00 2.8 17 Este 23 Este 0 -- -- 96
2019-04-12 07:00:00 2.9 14 Nordeste 20 Este 0 -- -- 95
2019-04-12 06:00:00 4.2 12 Nordeste 18 Este 0 -- -- 95
2019-04-12 05:00:00 4.7 13 Nordeste 22 Nordeste 0 -- -- 94
2019-04-12 04:00:00 5.5 15 Nordeste 22 Nordeste 0 -- -- 93
2019-04-12 03:00:00 6 4 Este 16 Este 0 -- -- 91
2019-04-12 02:00:00 6.8 9 Este 16 Nordeste 0 -- -- 89
2019-04-12 01:00:00 7.3 4 Nordeste 11 Este 0 -- -- 84
2019-04-12 00:00:00 8.5 7 Nordeste 13 Este 0 -- -- 78
2019-04-11 23:00:00 10 4 Nordeste 16 Este 0 -- -- 66
2019-04-11 22:00:00 11.3 6 Nordeste 14 Este 0 -- -- 63
2019-04-11 21:00:00 13.1 6 Norte 14 Norte 0 -- -- 58
2019-04-11 20:00:00 14.6 5 Nordeste 19 Este 0 -- -- 52
2019-04-11 19:00:00 17.1 8 Este 16 Este 0 -- -- 41
2019-04-11 18:00:00 15.9 11 Este 20 Este 0 -- -- 40
2019-04-11 17:00:00 17.6 8 Este 26 Este 0 -- -- 38
2019-04-11 16:00:00 17.8 8 Este 20 Este 0 -- -- 40
2019-04-11 15:00:00 16.6 8 Sudeste 20 Este 0 -- -- 44
2019-04-11 14:00:00 15.4 12 Sudeste 21 Sudeste 0 -- -- 51
2019-04-11 13:00:00 12.9 13 Este 22 Este 0 -- -- 70
2019-04-11 12:00:00 9.6 17 Este 26 Este 0 -- -- 88
2019-04-11 11:00:00 6.8 13 Este 26 Este 0 -- -- 97
2019-04-11 10:00:00 5.8 14 Este 26 Este 0 -- -- 96
2019-04-11 09:00:00 5.9 10 Este 20 Este 0 -- -- 96
2019-04-11 08:00:00 5.8 14 Este 22 Este 0 -- -- 96
2019-04-11 07:00:00 6 9 Este 16 Este 0 -- -- 96
2019-04-11 06:00:00 5.5 6 Este 16 Este 0 -- -- 96
2019-04-11 05:00:00 5.1 9 Nordeste 15 Este 0 -- -- 95
2019-04-11 04:00:00 5.1 8 Nordeste 12 Este 0 -- -- 94
2019-04-11 03:00:00 5.5 6 Nordeste 12 Nordeste 0 -- -- 93
2019-04-11 02:00:00 6.1 7 Este 10 Este 0 -- -- 92
2019-04-11 01:00:00 7 9 Nordeste 12 Nordeste 0 -- -- 91
2019-04-11 00:00:00 7.9 7 Nordeste 12 Este 0 -- -- 87
2019-04-10 23:00:00 8.8 5 Nordeste 8 Este 0 -- -- 81
2019-04-10 22:00:00 10 6 Este 17 Nordeste 0 -- -- 74
2019-04-10 21:00:00 11.5 6 Nordeste 15 Nordeste 0 -- -- 64
2019-04-10 20:00:00 13.6 7 Nordeste 20 Nordeste 0 -- -- 56
2019-04-10 19:00:00 15.6 3 Nordeste 20 Norte 0 -- -- 51
2019-04-10 18:00:00 16.6 4 Norte 19 Norte 0 -- -- 49
2019-04-10 17:00:00 16.6 3 Norte 21 Norte 0 -- -- 54
2019-04-10 16:00:00 15.8 3 Norte 14 Este 0.1 -- -- 60
2019-04-10 15:00:00 14.6 2 Noroeste 13 Norte 0 -- -- 64
2019-04-10 14:00:00 13.4 3 Nordeste 13 Nordeste 0 -- -- 72
2019-04-10 13:00:00 12.9 0 Calma 7 Este 0 -- -- 80
2019-04-10 12:00:00 12 0 Calma 6 Oeste 0 -- -- 90
2019-04-10 11:00:00 10.4 0 Calma 6 Oeste 0 -- -- 95
2019-04-10 10:00:00 9.8 0 Calma 10 Sudoeste 0 -- -- 95
2019-04-10 09:00:00 7.8 0 Calma 4 Oeste 0 -- -- 95
2019-04-10 08:00:00 7.4 0 Calma 4 Sudoeste 0 -- -- 95
2019-04-10 07:00:00 7.4 2 Oeste 6 Noroeste 0 -- -- 95
2019-04-10 06:00:00 8.4 2 Sudoeste 7 Sur 1 -- -- 95
2019-04-10 05:00:00 8.6 0 Calma 6 Sudoeste 0.7 -- -- 95
2019-04-10 04:00:00 8.4 0 Calma 5 Oeste 0.2 -- -- 95
2019-04-10 03:00:00 8.7 0 Calma 7 Oeste 0.9 -- -- 95
2019-04-10 02:00:00 8.6 0 Calma 8 Oeste 2.6 -- -- 95
2019-04-10 01:00:00 8.6 0 Calma 10 Oeste 0.1 -- -- 94
2019-04-10 00:00:00 8.9 3 Oeste 9 Oeste 0 -- -- 94
2019-04-09 23:00:00 9.2 3 Oeste 9 Oeste 0.1 -- -- 94
2019-04-09 22:00:00 9.3 0 Calma 13 Noroeste 1.4 -- -- 93
2019-04-09 21:00:00 9.3 5 Oeste 22 Sudoeste 0.4 -- -- 92
2019-04-09 20:00:00 9.9 5 Oeste 21 Oeste 1.3 -- -- 92
2019-04-09 19:00:00 9.9 6 Noroeste 27 Noroeste 0.5 -- -- 88
2019-04-09 18:00:00 10.7 10 Oeste 32 Oeste 0.1 -- -- 83
2019-04-09 17:00:00 12.5 9 Oeste 23 Oeste 0.2 -- -- 93
2019-04-09 16:00:00 10.2 9 Oeste 32 Oeste 2.9 -- -- 93
2019-04-09 15:00:00 11.2 11 Oeste 46 Oeste 0.3 -- -- 88
2019-04-09 14:00:00 13.1 11 Oeste 32 Oeste 0 -- -- 77
2019-04-09 13:00:00 12.2 9 Oeste 36 Sudoeste 0.3 -- -- 85
2019-04-09 12:00:00 10.6 12 Oeste 29 Oeste 0 -- -- 79
2019-04-09 11:00:00 11 8 Oeste 21 Oeste 0 -- -- 86
2019-04-09 10:00:00 9 4 Oeste 15 Oeste 0.2 -- -- 94
2019-04-09 09:00:00 7.3 4 Noroeste 20 Norte 0 -- -- 94
2019-04-09 08:00:00 6.2 0 Calma 15 Oeste 0 -- -- 94
2019-04-09 07:00:00 7.1 4 Oeste 14 Oeste 0 -- -- 94
2019-04-09 06:00:00 8 4 Noroeste 21 Oeste 0.3 -- -- 94
2019-04-09 05:00:00 8.6 3 Oeste 19 Oeste 0.8 -- -- 94
2019-04-09 04:00:00 8.5 6 Sudoeste 19 Sudoeste 0 -- -- 94
2019-04-09 03:00:00 8.7 8 Oeste 35 Sudoeste 3.1 -- -- 94
2019-04-09 02:00:00 8.8 9 Sudoeste 27 Sudoeste 2.9 -- -- 94
2019-04-09 01:00:00 8.9 10 Oeste 32 Sudoeste 0.4 -- -- 94
2019-04-09 00:00:00 9.2 10 Oeste 31 Sudoeste 3.1 -- -- 94
2019-04-08 23:00:00 8.7 6 Sudoeste 26 Oeste 0.8 -- -- 93
2019-04-08 22:00:00 8.6 13 Oeste 47 Oeste 4.4 -- -- 92
2019-04-08 21:00:00 10.4 17 Oeste 40 Oeste 0.3 -- -- 85
2019-04-08 20:00:00 11.3 15 Oeste 47 Noroeste 0 -- -- 72
2019-04-08 19:00:00 12.1 22 Oeste 51 Oeste 0 -- -- 68
2019-04-08 18:00:00 12.8 20 Oeste 45 Oeste 0.3 -- -- 71
2019-04-08 17:00:00 13.4 14 Oeste 42 Oeste 0 -- -- 63
2019-04-08 16:00:00 11.4 19 Oeste 50 Oeste 0 -- -- 65
2019-04-08 15:00:00 12.3 21 Oeste 53 Oeste 0 -- -- 66
2019-04-08 14:00:00 12.9 18 Oeste 44 Sudoeste 0.1 -- -- 74
2019-04-08 13:00:00 12.9 10 Oeste 40 Oeste 0 -- -- 72
2019-04-08 12:00:00 12.2 11 Oeste 35 Oeste 0 -- -- 77
2019-04-08 11:00:00 11.3 10 Oeste 25 Sudoeste 0 -- -- 86
2019-04-08 10:00:00 9.5 3 Oeste 15 Sudoeste 0 -- -- 94
2019-04-08 09:00:00 7.7 4 Oeste 10 Sudoeste 0 -- -- 96
2019-04-08 08:00:00 7 3 Oeste 17 Oeste 0.4 -- -- 96
2019-04-08 07:00:00 8.3 3 Oeste 9 Oeste 0.4 -- -- 96
2019-04-08 06:00:00 8.4 4 Oeste 11 Oeste 0 -- -- 96
2019-04-08 05:00:00 8.4 5 Oeste 12 Oeste 0 -- -- 96
2019-04-08 04:00:00 9.2 3 Oeste 11 Oeste 0 -- -- 96
2019-04-08 03:00:00 9.3 4 Oeste 13 Oeste 0 -- -- 96
2019-04-08 02:00:00 9.9 5 Oeste 13 Oeste 0.1 -- -- 96
2019-04-08 01:00:00 10.1 5 Oeste 15 Oeste 1.3 -- -- 96
2019-04-08 00:00:00 10.7 8 Oeste 24 Oeste 0.1 -- -- 96
2019-04-07 23:00:00 10.7 5 Oeste 26 Sudoeste 1.4 -- -- 96
2019-04-07 22:00:00 11.1 3 Oeste 21 Oeste 5.9 -- -- 96
2019-04-07 21:00:00 11.2 6 Oeste 15 Noroeste 2.5 -- -- 95
2019-04-07 20:00:00 10.2 4 Oeste 13 Sudoeste 2.6 -- -- 94
2019-04-07 19:00:00 9.7 7 Este 10 Este 4.5 -- -- 94
2019-04-07 18:00:00 9.5 0 Calma 26 Este 7.9 -- -- 92
2019-04-07 17:00:00 9.6 5 Este 10 Este 3.9 -- -- 90
2019-04-07 16:00:00 10.1 5 Sudeste 15 Sur 0.8 -- -- 83
2019-04-07 15:00:00 9.9 4 Sur 20 Sur 1.4 -- -- 87
2019-04-07 14:00:00 9.9 5 Sudoeste 23 Oeste 0.3 -- -- 90
2019-04-07 13:00:00 10 6 Oeste 20 Sudoeste 0 -- -- 97
2019-04-07 12:00:00 6.9 7 Nordeste 15 Este 0 -- -- 97
2019-04-07 11:00:00 4.7 12 Este 19 Este 0 -- -- 98
2019-04-07 10:00:00 3.7 12 Este 21 Este 0 -- -- 97
2019-04-07 09:00:00 2.9 12 Este 22 Este 0 -- -- 98
2019-04-07 08:00:00 2.8 14 Nordeste 21 Este 0 -- -- 97
2019-04-07 07:00:00 3 13 Este 19 Este 0 -- -- 97
2019-04-07 06:00:00 2.9 8 Nordeste 13 Este 0 -- -- 97
2019-04-07 05:00:00 3.1 8 Este 13 Nordeste 0 -- -- 97
2019-04-07 04:00:00 3.3 10 Nordeste 13 Nordeste 0.1 -- -- 96
2019-04-07 03:00:00 3.7 0 Calma 4 Nordeste 0 -- -- 95
2019-04-07 02:00:00 4.6 0 Calma 6 Nordeste 0 -- -- 94
2019-04-07 01:00:00 5.3 0 Calma 7 Nordeste 0 -- -- 94
2019-04-07 00:00:00 5.5 5 Este 7 Nordeste 0 -- -- 93
2019-04-06 23:00:00 6.2 0 Calma 4 Este 0 -- -- 92
2019-04-06 22:00:00 6.4 2 Sudoeste 5 Sur 0.1 -- -- 90
2019-04-06 21:00:00 8 0 Calma 15 Oeste 0.9 -- -- 88
2019-04-06 20:00:00 8.7 0 Calma 13 Oeste 0.1 -- -- 75
2019-04-06 19:00:00 10.5 3 Oeste 30 Oeste 0.1 -- -- 70
2019-04-06 18:00:00 11.6 11 Oeste 33 Oeste 0 -- -- 68
2019-04-06 17:00:00 11.3 7 Oeste 27 Oeste 0 -- -- 73
2019-04-06 16:00:00 13.3 7 Oeste 27 Oeste 0 -- -- 68
2019-04-06 15:00:00 10.3 8 Oeste 22 Oeste 0.2 -- -- 94
2019-04-06 14:00:00 7.7 4 Oeste 20 Oeste 0.2 -- -- 94
2019-04-06 13:00:00 8.2 2 Oeste 16 Oeste 1.9 -- -- 95
2019-04-06 12:00:00 8.3 4 Oeste 19 Oeste 0.8 -- -- 96
2019-04-06 11:00:00 8 6 Oeste 20 Oeste 0.1 -- -- 96
2019-04-06 10:00:00 7.2 6 Oeste 22 Oeste 0.2 -- -- 96
2019-04-06 09:00:00 6.8 6 Oeste 17 Oeste 0 -- -- 96
2019-04-06 08:00:00 6.6 5 Oeste 18 Oeste 1.6 -- -- 96
2019-04-06 07:00:00 6.8 5 Oeste 23 Sudoeste 0.8 -- -- 96
2019-04-06 06:00:00 6.7 8 Sudoeste 41 Oeste 0.3 -- -- 96
2019-04-06 05:00:00 6.2 7 Oeste 25 Oeste 0.5 -- -- 96
2019-04-06 04:00:00 6.3 8 Oeste 23 Oeste 0.9 -- -- 96
2019-04-06 03:00:00 6.2 6 Oeste 33 Oeste 3.3 -- -- 95
2019-04-06 02:00:00 6.1 6 Sudoeste 22 Sur 1 -- -- 95
2019-04-06 01:00:00 6.1 2 Oeste 14 Oeste 1.8 -- -- 95
2019-04-06 00:00:00 6.1 4 Oeste 12 Oeste 0.1 -- -- 94
2019-04-05 23:00:00 6.8 0 Calma 10 Norte 2.1 -- -- 93
2019-04-05 22:00:00 6.8 3 Oeste 10 Sudoeste 0 -- -- 91
2019-04-05 21:00:00 7.5 3 Oeste 11 Oeste 0 -- -- 91
2019-04-05 20:00:00 9.2 0 Calma 11 Oeste 0.1 -- -- 89
2019-04-05 19:00:00 9.4 3 Sudoeste 14 Oeste 1.2 -- -- 88
2019-04-05 18:00:00 9 0 Calma 13 Norte 0.7 -- -- 84
2019-04-05 17:00:00 7.9 5 Nordeste 17 Nordeste 1.5 -- -- 88
2019-04-05 16:00:00 10 6 Este 13 Este 1.6 -- -- 88
2019-04-05 15:00:00 7.2 5 Este 20 Sur 4.2 -- -- 87
2019-04-05 14:00:00 9.8 5 Sudoeste 16 Oeste 0.8 -- -- 90
2019-04-05 13:00:00 6.5 6 Oeste 27 Sudoeste 1.1 -- -- 94
2019-04-05 12:00:00 7.1 12 Oeste 31 Oeste 0.6 -- -- 93
2019-04-05 11:00:00 6.1 10 Oeste 31 Sudoeste 0 -- -- 91
2019-04-05 10:00:00 5.6 9 Oeste 24 Sudoeste 0.6 -- -- 93
2019-04-05 09:00:00 4.7 3 Noroeste 12 Noroeste 0 -- -- 94
2019-04-05 08:00:00 4.2 2 Oeste 10 Oeste 0 -- -- 94
2019-04-05 07:00:00 3.9 0 Calma 12 Sudeste 0 -- -- 94
2019-04-05 06:00:00 4.5 0 Calma 11 Nordeste 0 -- -- 95
2019-04-05 05:00:00 4.8 8 Nordeste 14 Nordeste 0 -- -- 95
2019-04-05 04:00:00 5 2 Sur 11 Sudoeste 0.5 -- -- 96
2019-04-05 03:00:00 5.4 2 Noroeste 9 Sur 0.4 -- -- 96
2019-04-05 02:00:00 5.3 3 Oeste 30 Oeste 1.2 -- -- 96
2019-04-05 01:00:00 6.3 2 Oeste 10 Sudoeste 0 -- -- 96
2019-04-05 00:00:00 6.6 0 Calma 6 Sudoeste 0.1 -- -- 96
2019-04-04 23:00:00 7.1 0 Calma 8 Oeste 1 -- -- 96
2019-04-04 22:00:00 7.4 0 Calma 11 Oeste 3.2 -- -- 96
2019-04-04 21:00:00 7.4 4 Oeste 9 Oeste 1.3 -- -- 96
2019-04-04 20:00:00 7.5 0 Calma 8 Oeste 2.2 -- -- 96
2019-04-04 19:00:00 7.6 0 Calma 30 Sudoeste 6.1 -- -- 96
2019-04-04 18:00:00 8 12 Sudoeste 49 Sudoeste 2.6 -- -- 94
2019-04-04 17:00:00 8.2 14 Sudoeste 44 Sudoeste 2.1 -- -- 94
2019-04-04 16:00:00 8.5 10 Oeste 37 Sudoeste 1.3 -- -- 94
2019-04-04 15:00:00 9.2 14 Oeste 39 Oeste 0.9 -- -- 93
2019-04-04 14:00:00 8.8 13 Oeste 33 Sudoeste 0.8 -- -- 93
2019-04-04 13:00:00 9 11 Oeste 33 Sudoeste 0.2 -- -- 89
2019-04-04 12:00:00 7.9 10 Sudoeste 28 Sudoeste 0 -- -- 86
2019-04-04 11:00:00 6 8 Oeste 20 Oeste 0 -- -- 97
2019-04-04 10:00:00 4.4 0 Calma 7 Nordeste 0.1 -- -- 97
2019-04-04 09:00:00 2.2 6 Nordeste 9 Nordeste 0 -- -- 97
2019-04-04 08:00:00 1.3 0 Calma 11 Este 0 -- -- 97
2019-04-04 07:00:00 1.8 6 Nordeste 11 Nordeste 0 -- -- 97
2019-04-04 06:00:00 2.1 6 Nordeste 11 Nordeste 0 -- -- 96
2019-04-04 05:00:00 2.8 0 Calma 11 Este 0 -- -- 96
2019-04-04 04:00:00 2.8 6 Nordeste 11 Nordeste 0 -- -- 95
2019-04-04 03:00:00 3.2 0 Calma 11 Nordeste 0.3 -- -- 94
2019-04-04 02:00:00 2.9 0 Calma 7 Nordeste 0 -- -- 94
2019-04-04 01:00:00 3.1 0 Calma 12 Este 0 -- -- 91
2019-04-04 00:00:00 4.7 0 Calma 14 Norte 0 -- -- 87
2019-04-03 23:00:00 5.3 5 Norte 14 Norte 0 -- -- 89
2019-04-03 22:00:00 5.5 6 Nordeste 31 Este 0.1 -- -- 83
2019-04-03 21:00:00 7 4 Nordeste 18 Nordeste 0 -- -- 73
2019-04-03 20:00:00 7.2 8 Este 27 Este 0.3 -- -- 77
2019-04-03 19:00:00 9 2 Nordeste 45 Nordeste 0.6 -- -- 70
2019-04-03 18:00:00 10.6 8 Norte 31 Este 0 -- -- 50
2019-04-03 17:00:00 12.1 7 Norte 33 Nordeste 0 -- -- 50
2019-04-03 16:00:00 9.6 10 Nordeste 32 Nordeste 0 -- -- 66
2019-04-03 15:00:00 10.8 3 Nordeste 37 Nordeste 0.5 -- -- 69
2019-04-03 14:00:00 13.5 5 Este 34 Este 0 -- -- 55
2019-04-03 13:00:00 10.9 4 Nordeste 16 Sudeste 0 -- -- 68
2019-04-03 12:00:00 9.5 4 Sudoeste 27 Nordeste 0.9 -- -- 80
2019-04-03 11:00:00 9.4 0 Calma 8 Sur 0 -- -- 80
2019-04-03 10:00:00 6.5 2 Oeste 8 Este 0.1 -- -- 95
2019-04-03 09:00:00 4.6 0 Calma 5 Este 0 -- -- 95
2019-04-03 08:00:00 4.5 0 Calma 8 Sudeste 0.1 -- -- 95
2019-04-03 07:00:00 3.6 6 Nordeste 9 Nordeste 0 -- -- 94
2019-04-03 06:00:00 4.3 2 Este 7 Nordeste 0 -- -- 93
2019-04-03 05:00:00 5.1 2 Nordeste 5 Este 0 -- -- 91
2019-04-03 04:00:00 6.7 0 Calma 13 Nordeste 0.2 -- -- 88
2019-04-03 03:00:00 6.5 0 Calma 6 Nordeste 0 -- -- 83
2019-04-03 02:00:00 7.1 4 Nordeste 15 Nordeste 0 -- -- 78
2019-04-03 01:00:00 7.4 7 Nordeste 18 Nordeste 0 -- -- 75
2019-04-03 00:00:00 8.3 9 Nordeste 21 Nordeste 0 -- -- 75
2019-04-02 23:00:00 9 7 Nordeste 22 Nordeste 0 -- -- 72
2019-04-02 22:00:00 9.5 5 Nordeste 22 Este 0 -- -- 70
2019-04-02 21:00:00 10.6 4 Este 22 Norte 0 -- -- 61
2019-04-02 20:00:00 12.6 10 Nordeste 29 Nordeste 0 -- -- 51
2019-04-02 19:00:00 14.5 8 Nordeste 31 Este 0 -- -- 48
2019-04-02 18:00:00 15.6 9 Nordeste 26 Nordeste 0 -- -- 45
2019-04-02 17:00:00 16.7 4 Norte 21 Nordeste 0 -- -- 44
2019-04-02 16:00:00 17.8 7 Nordeste 22 Norte 0 -- -- 44
2019-04-02 15:00:00 17.2 8 Nordeste 26 Este 0 -- -- 47
2019-04-02 14:00:00 16.3 8 Este 19 Este 0 -- -- 53
2019-04-02 13:00:00 15.3 7 Sudeste 23 Este 0 -- -- 61
2019-04-02 12:00:00 12.7 15 Este 27 Este 0 -- -- 67
2019-04-02 11:00:00 11.4 14 Este 21 Este 0 -- -- 77
2019-04-02 10:00:00 11 11 Este 18 Este 0 -- -- 80
2019-04-02 09:00:00 10 4 Este 13 Este 0 -- -- 86
2019-04-02 08:00:00 9.6 6 Este 24 Este 0 -- -- 89
2019-04-02 07:00:00 9.1 6 Nordeste 15 Este 0 -- -- 94
2019-04-02 06:00:00 8.5 8 Este 13 Este 0 -- -- 95
2019-04-02 05:00:00 7.7 10 Nordeste 16 Este 0 -- -- 96
2019-04-02 04:00:00 6.8 9 Nordeste 14 Nordeste 0 -- -- 94
2019-04-02 03:00:00 7.3 6 Nordeste 11 Nordeste 0 -- -- 92
2019-04-02 02:00:00 8 3 Nordeste 7 Nordeste 0 -- -- 91
2019-04-02 01:00:00 8.7 4 Nordeste 7 Este 0 -- -- 89
2019-04-02 00:00:00 10.4 4 Este 7 Este 0 -- -- 89
2019-04-01 23:00:00 12.3 0 Calma 3 Oeste 0 -- -- 89
2019-04-01 22:00:00 12 0 Calma 9 Oeste 0 -- -- 82
2019-04-01 21:00:00 13.5 4 Oeste 14 Oeste 0 -- -- 69
2019-04-01 20:00:00 15 5 Oeste 29 Oeste 0 -- -- 59
2019-04-01 19:00:00 15.6 9 Oeste 26 Oeste 0 -- -- 50
2019-04-01 18:00:00 19 10 Oeste 27 Sudoeste 0 -- -- 43
2019-04-01 17:00:00 19 9 Oeste 24 Oeste 0 -- -- 39
2019-04-01 16:00:00 20.5 5 Oeste 17 Oeste 0 -- -- 37
2019-04-01 15:00:00 22.5 5 Oeste 16 Sudeste 0 -- -- 37
2019-04-01 14:00:00 21.2 5 Sudeste 17 Este 0 -- -- 38
2019-04-01 13:00:00 19.5 12 Este 25 Este 0 -- -- 47
2019-04-01 12:00:00 16.8 17 Este 24 Este 0 -- -- 53
2019-04-01 11:00:00 12.9 10 Este 25 Este 0 -- -- 69
2019-04-01 10:00:00 8.1 16 Este 26 Este 0 -- -- 88
2019-04-01 09:00:00 5.1 17 Nordeste 23 Nordeste 0 -- -- 94
2019-04-01 08:00:00 5.9 16 Nordeste 26 Este 0 -- -- 93
2019-04-01 07:00:00 6 19 Nordeste 27 Este 0 -- -- 91
2019-04-01 06:00:00 6.8 14 Nordeste 22 Este 0 -- -- 89
2019-04-01 05:00:00 6.8 16 Este 24 Este 0 -- -- 89
2019-04-01 04:00:00 7.1 8 Nordeste 10 Nordeste 0 -- -- 86
2019-04-01 03:00:00 8.3 5 Nordeste 9 Nordeste 0 -- -- 82
2019-04-01 02:00:00 8.9 5 Nordeste 10 Nordeste 0 -- -- 75
2019-04-01 01:00:00 10.3 4 Nordeste 12 Este 0 -- -- 68
2019-04-01 00:00:00 10.9 4 Este 22 Este 0 -- -- 64
2019-03-31 23:00:00 11.9 19 Este 25 Este 0 -- -- 61
2019-03-31 22:00:00 13.8 12 Este 26 Este 0 -- -- 52
2019-03-31 21:00:00 14.9 15 Este 31 Este 0 -- -- 47
2019-03-31 20:00:00 17.2 9 Este 20 Este 0 -- -- 41
2019-03-31 19:00:00 18.9 11 Este 27 Nordeste 0 -- -- 37
2019-03-31 18:00:00 18.8 9 Este 36 Sur 0 -- -- 38
2019-03-31 17:00:00 21.1 13 Este 64 Este 0 -- -- 34
2019-03-31 16:00:00 18.7 31 Este 61 Este 0 -- -- 37
2019-03-31 15:00:00 18.4 9 Sudoeste 27 Norte 0.2 -- -- 40
2019-03-31 14:00:00 19.3 8 Este 16 Este 0 -- -- 39
2019-03-31 13:00:00 18.9 2 Este 21 Este 0 -- -- 45
2019-03-31 12:00:00 15.4 12 Este 26 Este 0 -- -- 52
2019-03-31 11:00:00 11.4 14 Este 27 Este 0 -- -- 63
2019-03-31 10:00:00 7.7 19 Este 28 Este 0 -- -- 84
2019-03-31 09:00:00 4 16 Este 25 Este 0 -- -- 94
2019-03-31 08:00:00 4.1 19 Este 23 Nordeste 0 -- -- 94
2019-03-31 07:00:00 4.6 17 Este 26 Este 0 -- -- 94
2019-03-31 06:00:00 4.9 19 Este 24 Este 0 -- -- 91
2019-03-31 05:00:00 5.8 17 Nordeste 24 Este 0 -- -- 89
2019-03-31 03:00:00 7.8 10 Este 20 Nordeste 0 -- -- 81
2019-03-31 01:00:00 7.4 9 Este 13 Este 0 -- -- 78
2019-03-31 00:00:00 8.6 7 Nordeste 9 Este 0 -- -- 72
2019-03-30 23:00:00 10.2 7 Nordeste 18 Nordeste 0 -- -- 63
2019-03-30 22:00:00 10 10 Nordeste 17 Nordeste 0 -- -- 58
2019-03-30 21:00:00 13.1 4 Nordeste 6 Nordeste 0 -- -- 43
2019-03-30 20:00:00 15.3 0 Calma 8 Oeste 0 -- -- 39
2019-03-30 19:00:00 18.3 3 Noroeste 13 Oeste 0 -- -- 33
2019-03-30 18:00:00 19.5 4 Oeste 20 Oeste 0 -- -- 32
2019-03-30 17:00:00 21 8 Oeste 21 Oeste 0 -- -- 35
2019-03-30 16:00:00 21.7 9 Oeste 22 Oeste 0 -- -- 34
2019-03-30 15:00:00 22.6 7 Oeste 21 Oeste 0 -- -- 30
2019-03-30 14:00:00 21.3 8 Oeste 20 Oeste 0 -- -- 30
2019-03-30 13:00:00 19.6 5 Sudoeste 14 Sudoeste 0 -- -- 37
2019-03-30 12:00:00 17.1 3 Oeste 13 Este 0 -- -- 46
2019-03-30 11:00:00 13.7 9 Este 21 Este 0 -- -- 53
2019-03-30 10:00:00 9.8 15 Este 24 Este 0 -- -- 65
2019-03-30 09:00:00 6 12 Este 21 Nordeste 0 -- -- 83
2019-03-30 08:00:00 2.7 15 Este 22 Nordeste 0 -- -- 93
2019-03-30 07:00:00 2.1 13 Nordeste 19 Este 0 -- -- 92
2019-03-30 06:00:00 3 14 Nordeste 21 Este 0 -- -- 89
2019-03-30 05:00:00 3.7 14 Este 19 Este 0 -- -- 88
2019-03-30 04:00:00 4.5 13 Nordeste 18 Nordeste 0 -- -- 86
2019-03-30 03:00:00 5 10 Este 18 Este 0 -- -- 83
2019-03-30 02:00:00 5.8 10 Nordeste 16 Este 0 -- -- 80
2019-03-30 01:00:00 7.1 12 Nordeste 16 Nordeste 0 -- -- 75
2019-03-30 00:00:00 7.3 10 Nordeste 13 Nordeste 0 -- -- 74
2019-03-29 23:00:00 8.6 6 Nordeste 10 Nordeste 0 -- -- 65
2019-03-29 22:00:00 11.7 0 Calma 3 Este 0 -- -- 55
2019-03-29 21:00:00 12.6 0 Calma 4 Sudoeste 0 -- -- 49
2019-03-29 20:00:00 13.2 2 Noroeste 14 Oeste 0 -- -- 44
2019-03-29 19:00:00 16.5 6 Oeste 30 Oeste 0 -- -- 34
2019-03-29 18:00:00 17.8 10 Oeste 36 Oeste 0 -- -- 32
2019-03-29 17:00:00 19.9 12 Oeste 39 Oeste 0 -- -- 31
2019-03-29 16:00:00 21 10 Oeste 32 Oeste 0 -- -- 30
2019-03-29 15:00:00 22.8 10 Oeste 26 Oeste 0 -- -- 30
2019-03-29 14:00:00 23 9 Oeste 21 Oeste 0 -- -- 30
2019-03-29 13:00:00 22.1 4 Oeste 14 Oeste 0 -- -- 35
2019-03-29 12:00:00 19.1 7 Este 22 Este 0 -- -- 40
2019-03-29 11:00:00 16.2 13 Este 21 Este 0 -- -- 50
2019-03-29 10:00:00 12.3 13 Este 24 Este 0 -- -- 64
2019-03-29 09:00:00 8 18 Este 24 Este 0 -- -- 83
2019-03-29 08:00:00 4.1 17 Este 24 Este 0 -- -- 95
2019-03-29 07:00:00 4.1 17 Este 26 Este 0 -- -- 95
2019-03-29 06:00:00 5.1 17 Este 23 Este 0 -- -- 94
2019-03-29 05:00:00 5.9 16 Este 23 Este 0 -- -- 91
2019-03-29 04:00:00 6.3 15 Este 23 Este 0 -- -- 89
2019-03-29 03:00:00 7.3 14 Este 22 Este 0 -- -- 83
2019-03-29 02:00:00 8.5 10 Este 19 Este 0 -- -- 78
2019-03-29 01:00:00 9.4 6 Este 18 Este 0 -- -- 74
2019-03-29 00:00:00 10.6 5 Este 13 Este 0 -- -- 68
2019-03-28 23:00:00 12 3 Nordeste 19 Este 0 -- -- 62
2019-03-28 22:00:00 13 9 Este 18 Este 0 -- -- 56
2019-03-28 21:00:00 14.9 6 Este 21 Este 0 -- -- 49
2019-03-28 20:00:00 17 6 Este 25 Este 0 -- -- 44
2019-03-28 19:00:00 19.8 12 Nordeste 23 Este 0 -- -- 38
2019-03-28 18:00:00 22.1 9 Nordeste 21 Este 0 -- -- 33
2019-03-28 17:00:00 24 9 Nordeste 21 Este 0 -- -- 31
2019-03-28 16:00:00 23.7 6 Este 19 Este 0 -- -- 29
2019-03-28 15:00:00 24.3 3 Este 24 Este 0 -- -- 30
2019-03-28 14:00:00 22.5 15 Este 22 Este 0 -- -- 35
2019-03-28 13:00:00 20.7 11 Este 21 Este 0 -- -- 37
2019-03-28 12:00:00 18.3 10 Sudeste 17 Este 0 -- -- 42
2019-03-28 11:00:00 15.4 8 Este 17 Este 0 -- -- 47
2019-03-28 10:00:00 12.8 7 Este 17 Este 0 -- -- 54
2019-03-28 09:00:00 8.8 5 Nordeste 15 Nordeste 0 -- -- 75
2019-03-28 08:00:00 4.6 8 Nordeste 16 Nordeste 0 -- -- 85
2019-03-28 07:00:00 5.5 0 Calma 12 Este 0 -- -- 79
2019-03-28 06:00:00 5.8 3 Nordeste 8 Norte 0 -- -- 77
2019-03-28 05:00:00 6.6 0 Calma 12 Este 0 -- -- 73
2019-03-28 04:00:00 7.9 2 Norte 12 Nordeste 0 -- -- 69
2019-03-28 03:00:00 8.4 5 Nordeste 20 Este 0 -- -- 68
2019-03-28 02:00:00 9.2 7 Este 27 Este 0 -- -- 64
2019-03-28 01:00:00 9.3 5 Este 28 Este 0 -- -- 63
2019-03-28 00:00:00 9.9 4 Este 20 Este 0 -- -- 59
2019-03-27 23:00:00 11.5 12 Este 26 Este 0 -- -- 53
2019-03-27 22:00:00 13.2 12 Este 33 Nordeste 0 -- -- 48
2019-03-27 21:00:00 15.3 15 Este 32 Este 0 -- -- 43
2019-03-27 20:00:00 17.3 20 Este 36 Nordeste 0 -- -- 38
2019-03-27 19:00:00 19 14 Este 27 Este 0 -- -- 34
2019-03-27 18:00:00 21.7 17 Este 29 Este 0 -- -- 26
2019-03-27 17:00:00 23.9 11 Este 23 Este 0 -- -- 26
2019-03-27 16:00:00 24.1 6 Este 28 Este 0 -- -- 24
2019-03-27 15:00:00 23.1 15 Este 26 Este 0 -- -- 25
2019-03-27 14:00:00 22.2 12 Este 26 Sudeste 0 -- -- 26
2019-03-27 13:00:00 20.9 11 Este 26 Este 0 -- -- 28
2019-03-27 12:00:00 18.8 13 Este 26 Este 0 -- -- 34
2019-03-27 11:00:00 15.7 15 Este 23 Este 0 -- -- 44
2019-03-27 10:00:00 12.4 15 Este 30 Este 0 -- -- 53
2019-03-27 09:00:00 8.3 17 Este 27 Este 0 -- -- 68
2019-03-27 08:00:00 3.1 9 Este 21 Este 0 -- -- 86
2019-03-27 07:00:00 3.5 6 Este 22 Este 0 -- -- 83
2019-03-27 06:00:00 5 13 Este 36 Este 0 -- -- 77
2019-03-27 05:00:00 5.9 20 Este 41 Este 0 -- -- 75
2019-03-27 04:00:00 7.2 28 Este 47 Este 0 -- -- 72
2019-03-27 03:00:00 6.3 7 Este 19 Este 0 -- -- 73
2019-03-27 02:00:00 7.9 7 Este 36 Este 0 -- -- 68
2019-03-27 01:00:00 8.9 13 Este 33 Nordeste 0 -- -- 64
2019-03-27 00:00:00 10.6 20 Nordeste 32 Nordeste 0 -- -- 60
2019-03-26 23:00:00 10.7 15 Nordeste 37 Este 0 -- -- 58
2019-03-26 22:00:00 11.9 33 Este 52 Este 0 -- -- 53
2019-03-26 21:00:00 13.6 34 Este 45 Este 0 -- -- 48
2019-03-26 20:00:00 15.1 15 Nordeste 32 Nordeste 0 -- -- 45
2019-03-26 19:00:00 17.9 10 Nordeste 34 Este 0 -- -- 40
2019-03-26 18:00:00 19.7 12 Nordeste 34 Este 0 -- -- 37
2019-03-26 17:00:00 22.1 16 Este 35 Este 0 -- -- 32
2019-03-26 16:00:00 22.2 15 Este 50 Este 0 -- -- 32
2019-03-26 15:00:00 21.6 22 Este 42 Este 0 -- -- 33
2019-03-26 14:00:00 21 19 Este 40 Este 0 -- -- 35
2019-03-26 13:00:00 18.7 26 Este 41 Este 0 -- -- 40
2019-03-26 12:00:00 16.6 24 Este 44 Este 0 -- -- 45
2019-03-26 11:00:00 14.3 24 Este 44 Este 0 -- -- 50
2019-03-26 10:00:00 12.3 22 Este 35 Este 0 -- -- 55
2019-03-26 09:00:00 10 20 Este 30 Este 0 -- -- 61
2019-03-26 08:00:00 6.7 18 Este 32 Este 0 -- -- 68
2019-03-26 07:00:00 6.6 10 Este 30 Este 0 -- -- 67
2019-03-26 06:00:00 7.8 18 Este 36 Este 0 -- -- 64
2019-03-26 05:00:00 8.3 17 Este 33 Nordeste 0 -- -- 62
2019-03-26 04:00:00 8.7 15 Este 33 Este 0 -- -- 61
2019-03-26 03:00:00 9.3 6 Este 38 Este 0 -- -- 59
2019-03-26 02:00:00 10.3 24 Este 37 Este 0 -- -- 58
2019-03-26 01:00:00 10.6 17 Este 37 Este 0 -- -- 59
2019-03-26 00:00:00 11 19 Este 39 Este 0 -- -- 59
2019-03-25 23:00:00 11.1 16 Este 38 Este 0 -- -- 59
2019-03-25 22:00:00 11.8 17 Este 40 Nordeste 0 -- -- 57
2019-03-25 21:00:00 12.9 21 Este 44 Nordeste 0 -- -- 57
2019-03-25 20:00:00 13.7 24 Este 45 Este 0 -- -- 55
2019-03-25 19:00:00 15.6 22 Este 41 Este 0 -- -- 50
2019-03-25 18:00:00 18.5 20 Este 38 Nordeste 0 -- -- 44
2019-03-25 17:00:00 20.8 19 Este 37 Nordeste 0 -- -- 40
2019-03-25 16:00:00 21.3 19 Este 36 Este 0 -- -- 38
2019-03-25 15:00:00 21.2 22 Este 38 Este 0 -- -- 39
2019-03-25 14:00:00 20.3 24 Este 44 Este 0 -- -- 43
2019-03-25 13:00:00 18.4 33 Este 46 Este 0 -- -- 46
2019-03-25 12:00:00 17.5 27 Este 45 Este 0 -- -- 51
2019-03-25 11:00:00 16.1 19 Este 40 Este 0 -- -- 55
2019-03-25 10:00:00 14.2 21 Este 36 Este 0 -- -- 64
2019-03-25 09:00:00 11.1 12 Este 25 Este 0 -- -- 77
2019-03-25 08:00:00 8 4 Este 19 Sudeste 0 -- -- 84
2019-03-25 07:00:00 8.1 9 Este 24 Este 0 -- -- 81
2019-03-25 06:00:00 8.5 5 Este 24 Este 0 -- -- 76
2019-03-25 05:00:00 9.2 8 Este 24 Este 0 -- -- 70
2019-03-25 04:00:00 9.4 10 Este 24 Este 0 -- -- 66
2019-03-25 03:00:00 10 8 Este 33 Este 0 -- -- 60
2019-03-25 02:00:00 11.1 20 Este 33 Este 0 -- -- 55
2019-03-25 01:00:00 10.9 22 Este 32 Este 0 -- -- 53
2019-03-25 00:00:00 11.6 15 Este 30 Este 0 -- -- 49
2019-03-24 23:00:00 12.6 19 Este 32 Nordeste 0 -- -- 46
2019-03-24 22:00:00 13.3 16 Este 32 Este 0 -- -- 44
2019-03-24 21:00:00 14.5 14 Este 40 Este 0 -- -- 42
2019-03-24 20:00:00 16.9 21 Este 40 Este 0 -- -- 39
2019-03-24 19:00:00 19.9 14 Nordeste 33 Nordeste 0 -- -- 39
2019-03-24 18:00:00 23.1 10 Este 25 Este 0 -- -- 31
2019-03-24 17:00:00 24.3 14 Este 34 Sudeste 0 -- -- 30
2019-03-24 16:00:00 25.3 14 Este 31 Este 0 -- -- 31
2019-03-24 15:00:00 24.8 12 Este 26 Este 0 -- -- 32
2019-03-24 14:00:00 24.6 9 Este 26 Este 0 -- -- 33
2019-03-24 13:00:00 21.8 8 Este 14 Este 0 -- -- 41
2019-03-24 12:00:00 18.6 9 Este 21 Este 0 -- -- 45
2019-03-24 11:00:00 16 12 Este 24 Este 0 -- -- 49
2019-03-24 10:00:00 12 9 Este 22 Este 0 -- -- 63
2019-03-24 09:00:00 7.3 13 Nordeste 24 Nordeste 0 -- -- 82
2019-03-24 08:00:00 4.8 10 Nordeste 27 Este 0 -- -- 87
2019-03-24 07:00:00 4.6 19 Este 31 Este 0 -- -- 89
2019-03-24 06:00:00 4.4 20 Este 28 Este 0 -- -- 88
2019-03-24 05:00:00 5.8 19 Este 26 Este 0 -- -- 83
2019-03-24 04:00:00 7.1 19 Nordeste 24 Este 0 -- -- 79
2019-03-24 03:00:00 7.9 16 Nordeste 24 Este 0 -- -- 74
2019-03-24 02:00:00 8.5 18 Nordeste 23 Este 0 -- -- 70
2019-03-24 01:00:00 9.3 14 Este 21 Este 0 -- -- 66
2019-03-24 00:00:00 10.2 13 Este 19 Este 0 -- -- 60
2019-03-23 23:00:00 11.6 10 Nordeste 13 Nordeste 0 -- -- 52
2019-03-23 22:00:00 12.8 5 Este 11 Nordeste 0 -- -- 46
2019-03-23 21:00:00 14.7 3 Nordeste 5 Nordeste 0 -- -- 40
2019-03-23 20:00:00 16.4 0 Calma 24 Norte 0 -- -- 37
2019-03-23 19:00:00 19 6 Nordeste 20 Nordeste 0 -- -- 35
2019-03-23 18:00:00 22.1 5 Oeste 15 Sudoeste 0 -- -- 30
2019-03-23 17:00:00 23.2 5 Oeste 14 Sudoeste 0 -- -- 29
2019-03-23 16:00:00 24.3 5 Oeste 18 Oeste 0 -- -- 30
2019-03-23 15:00:00 23 5 Oeste 12 Sudoeste 0 -- -- 29
2019-03-23 14:00:00 22 2 Oeste 10 Oeste 0 -- -- 30
2019-03-23 13:00:00 19.8 2 Sudoeste 14 Este 0 -- -- 43
2019-03-23 12:00:00 16.6 9 Este 19 Este 0 -- -- 47
2019-03-23 11:00:00 14 12 Este 23 Este 0 -- -- 56
2019-03-23 10:00:00 9.7 13 Este 23 Este 0 -- -- 71
2019-03-23 09:00:00 5.9 17 Este 28 Este 0 -- -- 91
2019-03-23 08:00:00 2.6 18 Este 24 Este 0 -- -- 95
2019-03-23 07:00:00 2.9 15 Nordeste 23 Este 0 -- -- 94
2019-03-23 06:00:00 3.4 15 Nordeste 23 Nordeste 0 -- -- 93
2019-03-23 05:00:00 4.8 16 Nordeste 23 Nordeste 0 -- -- 91
2019-03-23 04:00:00 4.9 16 Nordeste 22 Este 0 -- -- 91
2019-03-23 03:00:00 5.9 16 Este 23 Este 0 -- -- 88
2019-03-23 02:00:00 6.7 12 Nordeste 21 Nordeste 0 -- -- 85
2019-03-23 01:00:00 7.2 14 Nordeste 19 Nordeste 0 -- -- 81
2019-03-23 00:00:00 8 8 Nordeste 16 Este 0 -- -- 78
2019-03-22 23:00:00 9.3 12 Este 17 Nordeste 0 -- -- 72
2019-03-22 22:00:00 10.3 10 Este 15 Este 0 -- -- 68
2019-03-22 21:00:00 12.3 5 Nordeste 12 Norte 0 -- -- 50
2019-03-22 20:00:00 14.1 4 Norte 12 Norte 0 -- -- 39
2019-03-22 19:00:00 17.3 3 Oeste 15 Oeste 0 -- -- 37
2019-03-22 18:00:00 19.1 7 Oeste 19 Oeste 0 -- -- 33
2019-03-22 17:00:00 20.7 6 Oeste 18 Oeste 0 -- -- 30
2019-03-22 16:00:00 20.8 8 Oeste 19 Sudoeste 0 -- -- 30
2019-03-22 15:00:00 20.5 6 Oeste 17 Oeste 0 -- -- 31
2019-03-22 14:00:00 20.3 5 Oeste 14 Oeste -- -- -- 35
2019-03-22 13:00:00 18.4 6 Oeste 13 Oeste 0 -- -- 38
2019-03-22 12:00:00 16.4 2 Oeste 14 Este 0 -- -- 48
2019-03-22 11:00:00 12.8 10 Este 18 Este 0 -- -- 60
2019-03-22 10:00:00 9.7 12 Este 22 Este 0 -- -- 75
2019-03-22 09:00:00 5.6 14 Este 23 Este 0 -- -- 94
2019-03-22 08:00:00 2.9 13 Nordeste 21 Nordeste 0 -- -- 96
2019-03-22 07:00:00 3.1 17 Nordeste 23 Este 0 -- -- 95
2019-03-22 06:00:00 3.7 14 Nordeste 21 Este 0 -- -- 94
2019-03-22 05:00:00 4.1 17 Este 22 Este 0 -- -- 92
2019-03-22 04:00:00 4.7 15 Nordeste 19 Nordeste 0 -- -- 91
2019-03-22 03:00:00 5.4 10 Nordeste 14 Este 0 -- -- 88
2019-03-22 02:00:00 5.7 11 Nordeste 14 Nordeste 0 -- -- 84
2019-03-22 01:00:00 6.7 8 Nordeste 12 Nordeste 0 -- -- 78
2019-03-22 00:00:00 8.2 0 Calma 5 Nordeste 0 -- -- 70
2019-03-21 23:00:00 9 5 Nordeste 8 Nordeste 0 -- -- 63
2019-03-21 22:00:00 10.7 0 Calma 6 Sudoeste 0 -- -- 53
2019-03-21 21:00:00 12.4 0 Calma 7 Oeste 0 -- -- 48
2019-03-21 20:00:00 13.7 2 Noroeste 13 Noroeste 0 -- -- 45
2019-03-21 19:00:00 16.8 2 Noroeste 14 Oeste 0 -- -- 42
2019-03-21 18:00:00 18.8 5 Oeste 18 Oeste 0 -- -- 41
2019-03-21 17:00:00 20.1 6 Oeste 14 Oeste 0 -- -- 39
2019-03-21 16:00:00 20.8 3 Oeste 12 Oeste 0 -- -- 38
2019-03-21 15:00:00 19.3 3 Noroeste 13 Oeste 0 -- -- 39
2019-03-21 14:00:00 19.1 0 Calma 17 Norte 0 -- -- 42
2019-03-21 13:00:00 17.6 0 Calma 13 Este 0 -- -- 44
2019-03-21 12:00:00 16 8 Este 18 Este 0 -- -- 44
2019-03-21 11:00:00 13.7 13 Este 21 Este 0 -- -- 50
2019-03-21 10:00:00 11 14 Este 21 Este 0 -- -- 67
2019-03-21 09:00:00 7 13 Este 21 Nordeste 0 -- -- 88
2019-03-21 08:00:00 4.3 14 Este 21 Nordeste 0 -- -- 93
2019-03-21 07:00:00 4.9 11 Nordeste 17 Nordeste 0 -- -- 91
2019-03-21 06:00:00 5.4 8 Nordeste 16 Nordeste 0 -- -- 89
2019-03-21 05:00:00 5.5 10 Nordeste 19 Este 0 -- -- 88
2019-03-21 04:00:00 6.1 7 Nordeste 17 Nordeste 0 -- -- 86
2019-03-21 03:00:00 6.6 6 Este 19 Este 0 -- -- 84
2019-03-21 02:00:00 6.8 6 Este 26 Este 0 -- -- 83
2019-03-21 01:00:00 7.7 10 Este 24 Este 0 -- -- 78
2019-03-21 00:00:00 8.5 8 Este 28 Este 0 -- -- 74